Aviation Digital Data Service (ADDS)

Output produced by METARs form (1021 UTC 19 January 2019)
found at http://www.aviationweather.gov/metar/data/
 
EFET 190950Z AUTO 00000KT 1100 SN OVC032 M21/M23 Q0997
EFHA 190950Z AUTO 16003KT 9999 BKN012 M12/M13 Q1002
EFHK 190950Z 23005KT 9999 SCT030 M09/M10 Q1005 NOSIG
TAF EFHK 190826Z 1909/2009 25006KT 9999 FEW025 
     BECMG 1914/1916 4000 -SN 
     TEMPO 1916/1919 1400 SN VV009 
     BECMG 1919/1921 9999 NSW 
     TEMPO 1922/2004 4000 -SN BKN012 
     BECMG 2000/2002 31010KT 
     TEMPO 2006/2008 BKN014
       
EFIV 190950Z 24002KT CAVOK M18/M21 Q0999
TAF EFIV 190825Z 1909/1918 22005KT 9999 FEW009 
     TEMPO 1909/1915 2000 -SN BKN008 
     TEMPO 1915/1918 2000 -SN BKN004
       
EFJO 190950Z AUTO 27007KT 5000 -SN OVC041 M17/M18 Q1000
TAF EFJO 190825Z 1909/1917 28003KT 8000 -SN BKN025 
     TEMPO 1909/1917 2500 -SN BKN004
       
EFJY 190950Z AUTO VRB02KT 0600 +SN OVC009 M14/M16 Q1000 RESN
TAF AMD EFJY 190924Z 1909/2009 23003KT 4000 -SN BKN006 
     TEMPO 1909/1915 0700 SN BKN004 
     BECMG 1915/1917 4000 -SN 
     TEMPO 1917/2009 9000 NSW BKN015
       
EFKI 190950Z AUTO VRB02KT 5000 -SN BKN016 M16/M19 Q0999
TAF AMD EFKI 190835Z 1909/1918 25004KT 8000 -SN SCT005 BKN015 
     TEMPO 1909/1918 2000 -SN BKN005
       
EFKE 190950Z AUTO 02003KT 360V110 9999 -SHSN FEW015 M22/M24 Q1000
TAF EFKE 190825Z 1909/1918 02002KT 9999 -SN FEW005 BKN015 
     TEMPO 1909/1918 4000 -SN BKN008
       
EFKT 190950Z VRB01KT 8000 -SN OVC045 M18/M21 Q0998
TAF EFKT 190825Z 1909/1918 34002KT 8000 -SN FEW040 
     TEMPO 1909/1918 4000 -SN BKN007
       
EFKK 190950Z AUTO 17007KT 9999 BKN013 M09/M11 Q1000
TAF AMD EFKK 190925Z 1909/1917 15003KT 9999 SCT014 
     PROB30 
     TEMPO 1909/1911 BKN006
       
EFKU 190950Z AUTO VRB02KT 0750 +SN BKN016 M17/M19 Q1001 RESN
TAF AMD EFKU 190936Z 1909/2009 VRB02KT 8000 -SN OVC006 
     TEMPO 1909/1917 0700 SN BKN004 
     BECMG 1917/1919 3000 -SN SCT005 OVC030 
     TEMPO 1919/2009 1200 -SG OVC004
       
EFKS 190950Z 12001KT 5000 -SN OVC017 M11/M13 Q0997
TAF EFKS 190825Z 1909/1918 34003KT 8000 -SN FEW005 BKN035 
     TEMPO 1909/1918 3000 -SN BKN004
       
EFLP 190950Z AUTO 21003KT 5000 -SN BKN017 BKN040 M15/M16 Q1002
EFMA 190950Z AUTO 21003KT 160V260 CAVOK M03/M07 Q1006
TAF EFMA 190826Z 1909/1918 26007KT CAVOK 
     PROB30 1911/1912 2500 -SHSN 
     TEMPO 1912/1914 3000 -SN BKN013 
     BECMG 1916/1918 30018G30KT
       
EFMI 190950Z AUTO 00000KT 1100 SN OVC006 ///// Q////
EFOU 190950Z AUTO 12004KT 3600 -SN BKN028/// OVC033/// M16/M18 Q0999
TAF EFOU 190825Z 1909/2009 12005KT 8000 -SN BKN015 
     TEMPO 1909/1915 1200 -SN BKN003 
     TEMPO 1915/1924 1500 -SN BKN004
       
EFPO 190950Z AUTO 22004KT 9999 FEW017/// M03/M04 Q1003
EFRO 190950Z AUTO 06006KT 5000 -SN FEW030 BKN080 M16/M17 Q0997
TAF EFRO 190825Z 1909/2009 03003KT 9999 FEW010 BKN035 
     TEMPO 1909/1912 2000 -SN BKN008 
     TEMPO 1912/2009 1500 -SN BKN005
       
EFSA 190950Z AUTO 25001KT 0700 SN OVC005 M17/M19 Q1002
EFSI 190950Z AUTO 18001KT CAVOK M19/M21 Q1001
EFTP 190950Z AUTO 23003KT 9999 FEW022 SCT027 M13/M14 Q1003
TAF EFTP 190836Z 1909/2009 21003KT 9999 BKN025 
     BECMG 1914/1916 4000 -SN 
     TEMPO 1916/1919 1400 SN VV009 
     TEMPO 1919/1923 9999 NSW BKN008 
     BECMG 1923/2001 33010KT 9999 NSW 
     TEMPO 2003/2009 BKN008
       
EFTU 190950Z AUTO 25009KT 9999 FEW008/// SCT012/// M02/M04 Q1005
TAF AMD EFTU 190910Z 1909/2009 26006KT 9999 SCT020 
     TEMPO 1909/1911 BKN008 
     TEMPO 1914/2002 2000 -SN BKN010 
     BECMG 1922/1924 32011KT 
     PROB30 2004/2007 BKN008
       
EFUT 190950Z AUTO 22003KT 9999 -SN OVC016 M14/M15 Q1003
EFVA 190950Z AUTO 15003KT CAVOK M14/M16 Q1001
TAF EFVA 190836Z 1909/2009 13004KT CAVOK 
     BECMG 1911/1913 4000 -SN 
     TEMPO 1913/1919 1200 SN BKN008 
     BECMG 1919/1921 35010KT 9999 NSW OVC004 
     TEMPO 1921/2003 6000 -SG BKN006 
     BECMG 2003/2005 BKN008 
     TEMPO 2005/2009 7000 BKN015